Lil T — WDJ5591 — position and weather

sailwx.info

Track history (hours):
 
Tides and Currents Weather Stations Pressure Air Temp Water Temp Dewpoint Dewpoint Depression Visibility Wind Speed Wind Dir Waves Ship Positions

Lil T

Owner: Dean Equipment Inc., Harvey, LA. More information available from US FCC via Universal Licensing System and Coast Guard Vessel Documentation Center.

Last reported at 2017-Dec-16 07:04 UTC. Time now 2018-Jan-24 05:53 UTC.
Position N 29°35' W 090°23'.
Warning: this ship's position is 38 days out of date.

Length 17 m.

Type: Towing. MMSI: 367789350.

Date/timePositionNaut miles runAvg speedWind from/ knotsBaromVisibWave heightAir tempDewpointWater temp
2017-Dec-16 07:04N 29°35' W 090°23'1 6.0
2017-Dec-16 06:58N 29°34' W 090°23'3 4.9
2017-Dec-16 06:24N 29°33' W 090°26'2 6.1
2017-Dec-16 06:00N 29°34' W 090°29'3 6.1
2017-Dec-16 05:30N 29°34' W 090°32'3 5.9
2017-Dec-16 05:00N 29°35' W 090°36'2 4.7
2017-Dec-16 04:30N 29°35' W 090°38'3 5.8
2017-Dec-16 04:00N 29°36' W 090°41'2 3.4
2017-Dec-16 03:30N 29°35' W 090°43'2 3.1
2017-Dec-16 03:00N 29°34' W 090°43'0 0.7
2017-Dec-16 02:30N 29°34' W 090°44'2 4.1
2017-Dec-16 02:00N 29°33' W 090°46'3 5.0
2017-Dec-16 01:30N 29°32' W 090°48'6 5.9
2017-Dec-16 00:27N 29°34' W 090°55'57 4.2
2017-Dec-15 10:44N 29°50' W 091°59'1 5.8
2017-Dec-15 10:30N 29°50' W 092°00'3 5.8
2017-Dec-15 10:00N 29°49' W 092°03'3 5.6
2017-Dec-15 09:30N 29°48' W 092°06'3 5.5
2017-Dec-15 09:00N 29°47' W 092°09'3 5.2
2017-Dec-15 08:30N 29°47' W 092°12'1 1.7
2017-Dec-15 08:00N 29°47' W 092°13'1 2.9
2017-Dec-15 07:30N 29°48' W 092°15'1 1.2
2017-Dec-15 07:00N 29°48' W 092°15'2 4.9
2017-Dec-15 06:30N 29°50' W 092°18'3 5.0
2017-Dec-15 05:59N 29°51' W 092°20'2 3.9
2017-Dec-15 05:29N 29°52' W 092°22'2 4.3
2017-Dec-15 05:00N 29°53' W 092°24'3 5.3
2017-Dec-15 04:30N 29°54' W 092°27'41 4.1
2017-Dec-14 18:28N 30°01' W 093°14'2 3.9
2017-Dec-14 18:00N 30°02' W 093°16'2 4.1
2017-Dec-14 17:30N 30°04' W 093°16'1 2.7
2017-Dec-14 17:00N 30°05' W 093°18'1 2.7
2017-Dec-14 16:30N 30°06' W 093°19'0 0.1
2017-Dec-14 16:00N 30°06' W 093°19'0 0.0
2017-Dec-14 14:58N 30°06' W 093°19'0 0.0
2017-Dec-14 14:25N 30°06' W 093°19'0 0.0
2017-Dec-14 14:00N 30°06' W 093°19'0 0.0
2017-Dec-14 13:29N 30°06' W 093°19'0 0.0
2017-Dec-14 13:00N 30°06' W 093°19'0 0.0
2017-Dec-14 12:30N 30°06' W 093°19'0 0.0
2017-Dec-14 12:00N 30°06' W 093°19'0 0.0
2017-Dec-14 11:30N 30°06' W 093°19'0 0.0
2017-Dec-14 11:00N 30°06' W 093°19'0 0.0
2017-Dec-14 10:30N 30°06' W 093°19'0 0.0
2017-Dec-14 09:48N 30°06' W 093°19'0 0.0
2017-Dec-14 09:30N 30°06' W 093°19'0 0.0
2017-Dec-14 09:00N 30°06' W 093°19'0 0.0
2017-Dec-14 08:30N 30°06' W 093°19'0 0.0
2017-Dec-14 08:00N 30°06' W 093°19'0 0.0
2017-Dec-14 07:30N 30°06' W 093°19'2 3.0
2017-Dec-14 06:59N 30°05' W 093°20'2 4.4
2017-Dec-14 06:30N 30°04' W 093°22'3 5.7
2017-Dec-14 06:00N 30°04' W 093°25'2 4.9
2017-Dec-14 05:30N 30°04' W 093°28'3 5.2
2017-Dec-14 05:00N 30°04' W 093°31'3 5.2
2017-Dec-14 04:30N 30°04' W 093°34'3 5.3
2017-Dec-14 04:00N 30°04' W 093°37'3 5.3
2017-Dec-14 03:29N 30°03' W 093°41'19 1.6
2017-Dec-13 15:29N 30°02' W 094°02'0 0.0
2017-Dec-11 16:32N 30°02' W 094°02'0 0.0
2017-Dec-11 16:30N 30°02' W 094°02'0 0.0
2017-Dec-11 14:29N 30°02' W 094°02'0 0.0
2017-Dec-11 14:00N 30°02' W 094°02'0 0.0
2017-Dec-11 13:30N 30°02' W 094°02'0 0.0
2017-Dec-11 13:00N 30°02' W 094°02'0 0.0
2017-Dec-11 12:21N 30°02' W 094°02'0 0.0
2017-Dec-11 11:59N 30°02' W 094°02'0 0.0
2017-Dec-11 11:30N 30°02' W 094°02'0 0.0
2017-Dec-11 10:30N 30°02' W 094°02'0 0.0
2017-Dec-11 10:00N 30°02' W 094°02'0 0.0
2017-Dec-11 09:11N 30°02' W 094°02'0 0.0
2017-Dec-11 08:57N 30°02' W 094°02'0 0.0
2017-Dec-11 08:30N 30°02' W 094°02'0 0.0
2017-Dec-11 08:00N 30°02' W 094°02'0 0.0
2017-Dec-11 07:30N 30°02' W 094°02'0 0.0
2017-Dec-11 07:00N 30°02' W 094°02'0 0.0
2017-Dec-11 06:30N 30°02' W 094°02'0 0.0
2017-Dec-11 05:42N 30°02' W 094°02'0 0.0
2017-Dec-11 05:17N 30°02' W 094°02'0 0.0
2017-Dec-11 04:58N 30°02' W 094°02'0 0.0
2017-Dec-10 15:48N 30°02' W 094°02'0 0.0
2017-Dec-10 15:29N 30°02' W 094°02'  
2017-Dec-07 12:46N 30°02' W 094°02'0 0.0
2017-Dec-07 12:30N 30°02' W 094°02'0 0.0
2017-Dec-07 12:00N 30°02' W 094°02'  
Track history (hours):
 
Tides and Currents Weather Stations Pressure Air Temp Water Temp Dewpoint Dewpoint Depression Visibility Wind Speed Wind Dir Waves Ship Positions

Lil T

Owner: Dean Equipment Inc., Harvey, LA. More information available from US FCC via Universal Licensing System and Coast Guard Vessel Documentation Center.

Last reported at 2017-Dec-16 07:04 UTC. Time now 2018-Jan-24 05:53 UTC.
Position N 29°35' W 090°23'.
Warning: this ship's position is 38 days out of date.

Length 17 m.

Type: Towing. MMSI: 367789350.

Date/timePositionNaut miles runAvg speedWind from/ knotsBaromVisibWave heightAir tempDewpointWater temp
2017-Dec-16 07:04N 29°35' W 090°23'1 6.0
2017-Dec-16 06:58N 29°34' W 090°23'3 4.9
2017-Dec-16 06:24N 29°33' W 090°26'2 6.1
2017-Dec-16 06:00N 29°34' W 090°29'3 6.1
2017-Dec-16 05:30N 29°34' W 090°32'3 5.9
2017-Dec-16 05:00N 29°35' W 090°36'2 4.7
2017-Dec-16 04:30N 29°35' W 090°38'3 5.8
2017-Dec-16 04:00N 29°36' W 090°41'2 3.4
2017-Dec-16 03:30N 29°35' W 090°43'2 3.1
2017-Dec-16 03:00N 29°34' W 090°43'0 0.7
2017-Dec-16 02:30N 29°34' W 090°44'2 4.1
2017-Dec-16 02:00N 29°33' W 090°46'3 5.0
2017-Dec-16 01:30N 29°32' W 090°48'6 5.9
2017-Dec-16 00:27N 29°34' W 090°55'57 4.2
2017-Dec-15 10:44N 29°50' W 091°59'1 5.8
2017-Dec-15 10:30N 29°50' W 092°00'3 5.8
2017-Dec-15 10:00N 29°49' W 092°03'3 5.6
2017-Dec-15 09:30N 29°48' W 092°06'3 5.5
2017-Dec-15 09:00N 29°47' W 092°09'3 5.2
2017-Dec-15 08:30N 29°47' W 092°12'1 1.7
2017-Dec-15 08:00N 29°47' W 092°13'1 2.9
2017-Dec-15 07:30N 29°48' W 092°15'1 1.2
2017-Dec-15 07:00N 29°48' W 092°15'2 4.9
2017-Dec-15 06:30N 29°50' W 092°18'3 5.0
2017-Dec-15 05:59N 29°51' W 092°20'2 3.9
2017-Dec-15 05:29N 29°52' W 092°22'2 4.3
2017-Dec-15 05:00N 29°53' W 092°24'3 5.3
2017-Dec-15 04:30N 29°54' W 092°27'41 4.1
2017-Dec-14 18:28N 30°01' W 093°14'2 3.9
2017-Dec-14 18:00N 30°02' W 093°16'2 4.1
2017-Dec-14 17:30N 30°04' W 093°16'1 2.7
2017-Dec-14 17:00N 30°05' W 093°18'1 2.7
2017-Dec-14 16:30N 30°06' W 093°19'0 0.1
2017-Dec-14 16:00N 30°06' W 093°19'0 0.0
2017-Dec-14 14:58N 30°06' W 093°19'0 0.0
2017-Dec-14 14:25N 30°06' W 093°19'0 0.0
2017-Dec-14 14:00N 30°06' W 093°19'0 0.0
2017-Dec-14 13:29N 30°06' W 093°19'0 0.0
2017-Dec-14 13:00N 30°06' W 093°19'0 0.0
2017-Dec-14 12:30N 30°06' W 093°19'0 0.0
2017-Dec-14 12:00N 30°06' W 093°19'0 0.0
2017-Dec-14 11:30N 30°06' W 093°19'0 0.0
2017-Dec-14 11:00N 30°06' W 093°19'0 0.0
2017-Dec-14 10:30N 30°06' W 093°19'0 0.0
2017-Dec-14 09:48N 30°06' W 093°19'0 0.0
2017-Dec-14 09:30N 30°06' W 093°19'0 0.0
2017-Dec-14 09:00N 30°06' W 093°19'0 0.0
2017-Dec-14 08:30N 30°06' W 093°19'0 0.0
2017-Dec-14 08:00N 30°06' W 093°19'0 0.0
2017-Dec-14 07:30N 30°06' W 093°19'2 3.0
2017-Dec-14 06:59N 30°05' W 093°20'2 4.4
2017-Dec-14 06:30N 30°04' W 093°22'3 5.7
2017-Dec-14 06:00N 30°04' W 093°25'2 4.9
2017-Dec-14 05:30N 30°04' W 093°28'3 5.2
2017-Dec-14 05:00N 30°04' W 093°31'3 5.2
2017-Dec-14 04:30N 30°04' W 093°34'3 5.3
2017-Dec-14 04:00N 30°04' W 093°37'3 5.3
2017-Dec-14 03:29N 30°03' W 093°41'19 1.6
2017-Dec-13 15:29N 30°02' W 094°02'0 0.0
2017-Dec-11 16:32N 30°02' W 094°02'0 0.0
2017-Dec-11 16:30N 30°02' W 094°02'0 0.0
2017-Dec-11 14:29N 30°02' W 094°02'0 0.0
2017-Dec-11 14:00N 30°02' W 094°02'0 0.0
2017-Dec-11 13:30N 30°02' W 094°02'0 0.0
2017-Dec-11 13:00N 30°02' W 094°02'0 0.0
2017-Dec-11 12:21N 30°02' W 094°02'0 0.0
2017-Dec-11 11:59N 30°02' W 094°02'0 0.0
2017-Dec-11 11:30N 30°02' W 094°02'0 0.0
2017-Dec-11 10:30N 30°02' W 094°02'0 0.0
2017-Dec-11 10:00N 30°02' W 094°02'0 0.0
2017-Dec-11 09:11N 30°02' W 094°02'0 0.0
2017-Dec-11 08:57N 30°02' W 094°02'0 0.0
2017-Dec-11 08:30N 30°02' W 094°02'0 0.0
2017-Dec-11 08:00N 30°02' W 094°02'0 0.0
2017-Dec-11 07:30N 30°02' W 094°02'0 0.0
2017-Dec-11 07:00N 30°02' W 094°02'0 0.0
2017-Dec-11 06:30N 30°02' W 094°02'0 0.0
2017-Dec-11 05:42N 30°02' W 094°02'0 0.0
2017-Dec-11 05:17N 30°02' W 094°02'0 0.0
2017-Dec-11 04:58N 30°02' W 094°02'0 0.0
2017-Dec-10 15:48N 30°02' W 094°02'0 0.0
2017-Dec-10 15:29N 30°02' W 094°02'  
2017-Dec-07 12:46N 30°02' W 094°02'0 0.0
2017-Dec-07 12:30N 30°02' W 094°02'0 0.0
2017-Dec-07 12:00N 30°02' W 094°02'  

Dump ship's entire track history